sensor_id;sensor_type;location;lat;lon;timestamp;pressure;altitude;pressure_sealevel;temperature
8533;BMP280;4304;53.876;10.662;2022-12-11T00:02:06;105439.28;;;-139.81
8533;BMP280;4304;53.876;10.662;2022-12-11T00:04:32;105350.34;;;-139.81
8533;BMP280;4304;53.876;10.662;2022-12-11T00:06:57;105322.06;;;-139.81
8533;BMP280;4304;53.876;10.662;2022-12-11T00:09:22;105340.25;;;-139.81
8533;BMP280;4304;53.876;10.662;2022-12-11T00:11:48;105297.81;;;-139.81
8533;BMP280;4304;53.876;10.662;2022-12-11T00:14:14;105293.75;;;-139.81
8533;BMP280;4304;53.876;10.662;2022-12-11T00:16:40;105299.81;;;-139.81
8533;BMP280;4304;53.876;10.662;2022-12-11T00:19:06;105295.78;;;-139.81
8533;BMP280;4304;53.876;10.662;2022-12-11T00:21:31;105289.72;;;-139.81
8533;BMP280;4304;53.876;10.662;2022-12-11T00:24:12;105356.41;;;-139.81
8533;BMP280;4304;53.876;10.662;2022-12-11T00:26:38;105320.03;;;-139.81
8533;BMP280;4304;53.876;10.662;2022-12-11T00:29:03;105350.34;;;-139.81
8533;BMP280;4304;53.876;10.662;2022-12-11T00:31:30;105374.59;;;-139.81
8533;BMP280;4304;53.876;10.662;2022-12-11T00:33:56;105334.19;;;-139.81
8533;BMP280;4304;53.876;10.662;2022-12-11T00:36:23;105394.81;;;-139.81
8533;BMP280;4304;53.876;10.662;2022-12-11T00:38:49;105370.56;;;-139.81
8533;BMP280;4304;53.876;10.662;2022-12-11T00:41:22;105423.13;;;-139.81
8533;BMP280;4304;53.876;10.662;2022-12-11T00:43:48;105378.66;;;-139.81
8533;BMP280;4304;53.876;10.662;2022-12-11T00:46:13;105398.88;;;-139.81
8533;BMP280;4304;53.876;10.662;2022-12-11T00:48:38;105332.16;;;-139.81
8533;BMP280;4304;53.876;10.662;2022-12-11T00:51:04;105326.09;;;-139.81
8533;BMP280;4304;53.876;10.662;2022-12-11T00:53:29;105275.56;;;-139.81
8533;BMP280;4304;53.876;10.662;2022-12-11T00:55:55;105291.75;;;-139.81
8533;BMP280;4304;53.876;10.662;2022-12-11T00:58:20;105243.22;;;-139.81
8533;BMP280;4304;53.876;10.662;2022-12-11T01:00:45;105180.56;;;-139.81
8533;BMP280;4304;53.876;10.662;2022-12-11T01:03:13;105190.69;;;-139.81
8533;BMP280;4304;53.876;10.662;2022-12-11T01:05:41;105178.56;;;-139.81
8533;BMP280;4304;53.876;10.662;2022-12-11T01:08:06;105130.06;;;-139.81
8533;BMP280;4304;53.876;10.662;2022-12-11T01:10:32;105089.63;;;-139.81
8533;BMP280;4304;53.876;10.662;2022-12-11T01:13:04;105105.81;;;-139.81
8533;BMP280;4304;53.876;10.662;2022-12-11T01:15:33;105041.13;;;-139.81
8533;BMP280;4304;53.876;10.662;2022-12-11T01:17:58;104996.66;;;-139.81
8533;BMP280;4304;53.876;10.662;2022-12-11T01:20:26;105022.94;;;-139.81
8533;BMP280;4304;53.876;10.662;2022-12-11T01:22:53;104974.44;;;-139.81
8533;BMP280;4304;53.876;10.662;2022-12-11T01:25:19;104938.06;;;-139.81
8533;BMP280;4304;53.876;10.662;2022-12-11T01:27:44;104923.91;;;-139.81
8533;BMP280;4304;53.876;10.662;2022-12-11T01:30:10;104861.25;;;-139.81
8533;BMP280;4304;53.876;10.662;2022-12-11T01:32:35;104841.06;;;-139.81
8533;BMP280;4304;53.876;10.662;2022-12-11T01:35:15;104901.69;;;-139.81
8533;BMP280;4304;53.876;10.662;2022-12-11T01:37:40;104822.88;;;-139.81
8533;BMP280;4304;53.876;10.662;2022-12-11T01:40:08;104822.88;;;-139.81
8533;BMP280;4304;53.876;10.662;2022-12-11T01:42:33;104782.44;;;-139.81
8533;BMP280;4304;53.876;10.662;2022-12-11T01:47:43;104776.41;;;-139.81
8533;BMP280;4304;53.876;10.662;2022-12-11T01:50:08;104756.19;;;-139.81
8533;BMP280;4304;53.876;10.662;2022-12-11T01:52:33;104754.16;;;-139.81
8533;BMP280;4304;53.876;10.662;2022-12-11T01:54:58;104764.28;;;-139.81
8533;BMP280;4304;53.876;10.662;2022-12-11T01:57:24;104735.97;;;-139.81
8533;BMP280;4304;53.876;10.662;2022-12-11T01:59:49;104727.91;;;-139.81
8533;BMP280;4304;53.876;10.662;2022-12-11T02:02:25;104772.34;;;-139.81
8533;BMP280;4304;53.876;10.662;2022-12-11T02:04:51;104675.34;;;-139.81
8533;BMP280;4304;53.876;10.662;2022-12-11T02:07:16;104671.31;;;-139.81
8533;BMP280;4304;53.876;10.662;2022-12-11T02:09:44;104713.75;;;-139.81
8533;BMP280;4304;53.876;10.662;2022-12-11T02:12:23;104742.03;;;-139.81
8533;BMP280;4304;53.876;10.662;2022-12-11T02:21:02;104683.44;;;-139.81
8533;BMP280;4304;53.876;10.662;2022-12-11T02:32:03;104533.91;;;-139.81
8533;BMP280;4304;53.876;10.662;2022-12-11T02:34:38;104598.56;;;-139.81
8533;BMP280;4304;53.876;10.662;2022-12-11T02:37:09;104548.06;;;-139.81
8533;BMP280;4304;53.876;10.662;2022-12-11T02:39:38;104505.63;;;-139.81
8533;BMP280;4304;53.876;10.662;2022-12-11T02:42:05;104529.88;;;-139.81
8533;BMP280;4304;53.876;10.662;2022-12-11T02:44:33;104497.53;;;-139.81
8533;BMP280;4304;53.876;10.662;2022-12-11T02:47:19;104566.25;;;-139.81
8533;BMP280;4304;53.876;10.662;2022-12-11T02:49:47;104434.91;;;-139.81
8533;BMP280;4304;53.876;10.662;2022-12-11T02:52:16;104487.44;;;-139.81
8533;BMP280;4304;53.876;10.662;2022-12-11T02:54:43;104465.22;;;-139.81
8533;BMP280;4304;53.876;10.662;2022-12-11T02:57:14;104501.59;;;-139.81
8533;BMP280;4304;53.876;10.662;2022-12-11T02:59:42;104463.19;;;-139.81
8533;BMP280;4304;53.876;10.662;2022-12-11T03:02:10;104422.78;;;-139.81
8533;BMP280;4304;53.876;10.662;2022-12-11T03:04:36;104392.47;;;-139.81
8533;BMP280;4304;53.876;10.662;2022-12-11T03:07:06;104400.56;;;-139.81
8533;BMP280;4304;53.876;10.662;2022-12-11T03:09:32;104360.13;;;-139.81
8533;BMP280;4304;53.876;10.662;2022-12-11T03:11:57;104372.25;;;-139.81
8533;BMP280;4304;53.876;10.662;2022-12-11T03:14:22;104348.03;;;-139.81
8533;BMP280;4304;53.876;10.662;2022-12-11T03:16:56;104412.69;;;-139.81
8533;BMP280;4304;53.876;10.662;2022-12-11T03:19:33;104394.50;;;-139.81
8533;BMP280;4304;53.876;10.662;2022-12-11T03:22:10;104384.38;;;-139.81
8533;BMP280;4304;53.876;10.662;2022-12-11T03:24:49;104295.47;;;-139.81
8533;BMP280;4304;53.876;10.662;2022-12-11T03:27:20;104232.84;;;-139.81
8533;BMP280;4304;53.876;10.662;2022-12-11T03:32:57;104249.00;;;-139.81
8533;BMP280;4304;53.876;10.662;2022-12-11T03:35:28;104230.84;;;-139.81
8533;BMP280;4304;53.876;10.662;2022-12-11T03:37:56;104160.13;;;-139.81
8533;BMP280;4304;53.876;10.662;2022-12-11T03:40:24;104158.09;;;-139.81
8533;BMP280;4304;53.876;10.662;2022-12-11T03:42:54;104198.50;;;-139.81
8533;BMP280;4304;53.876;10.662;2022-12-11T03:45:21;104166.19;;;-139.81
8533;BMP280;4304;53.876;10.662;2022-12-11T03:47:48;104145.97;;;-139.81
8533;BMP280;4304;53.876;10.662;2022-12-11T03:50:17;104113.66;;;-139.81
8533;BMP280;4304;53.876;10.662;2022-12-11T03:52:44;104129.81;;;-139.81
8533;BMP280;4304;53.876;10.662;2022-12-11T03:55:12;104093.44;;;-139.81
8533;BMP280;4304;53.876;10.662;2022-12-11T03:57:38;104057.09;;;-139.81
8533;BMP280;4304;53.876;10.662;2022-12-11T04:00:10;104034.84;;;-139.81
8533;BMP280;4304;53.876;10.662;2022-12-11T04:02:36;104002.53;;;-139.81
8533;BMP280;4304;53.876;10.662;2022-12-11T04:05:01;104016.69;;;-139.81
8533;BMP280;4304;53.876;10.662;2022-12-11T04:07:27;103968.19;;;-139.81
8533;BMP280;4304;53.876;10.662;2022-12-11T04:09:53;103939.91;;;-139.81
8533;BMP280;4304;53.876;10.662;2022-12-11T04:12:31;103950.00;;;-139.81
8533;BMP280;4304;53.876;10.662;2022-12-11T04:14:56;103893.44;;;-139.81
8533;BMP280;4304;53.876;10.662;2022-12-11T04:17:21;103927.78;;;-139.81
8533;BMP280;4304;53.876;10.662;2022-12-11T04:19:46;103927.78;;;-139.81
8533;BMP280;4304;53.876;10.662;2022-12-11T04:22:14;103931.81;;;-139.81
8533;BMP280;4304;53.876;10.662;2022-12-11T04:24:39;103842.94;;;-139.81
8533;BMP280;4304;53.876;10.662;2022-12-11T04:27:05;103855.06;;;-139.81
8533;BMP280;4304;53.876;10.662;2022-12-11T04:29:30;103861.13;;;-139.81
8533;BMP280;4304;53.876;10.662;2022-12-11T04:31:55;103846.97;;;-139.81
8533;BMP280;4304;53.876;10.662;2022-12-11T04:34:21;103828.78;;;-139.81
8533;BMP280;4304;53.876;10.662;2022-12-11T04:36:46;103824.75;;;-139.81
8533;BMP280;4304;53.876;10.662;2022-12-11T04:39:12;103838.91;;;-139.81
8533;BMP280;4304;53.876;10.662;2022-12-11T04:41:38;103806.56;;;-139.81
8533;BMP280;4304;53.876;10.662;2022-12-11T04:44:04;103776.28;;;-139.81
8533;BMP280;4304;53.876;10.662;2022-12-11T04:46:29;103673.25;;;-139.81
8533;BMP280;4304;53.876;10.662;2022-12-11T04:48:55;103693.44;;;-139.81
8533;BMP280;4304;53.876;10.662;2022-12-11T04:51:20;103727.78;;;-139.81
8533;BMP280;4304;53.876;10.662;2022-12-11T04:53:45;103608.63;;;-139.81
8533;BMP280;4304;53.876;10.662;2022-12-11T04:56:14;103679.31;;;-139.81
8533;BMP280;4304;53.876;10.662;2022-12-11T04:58:41;103667.19;;;-139.81
8533;BMP280;4304;53.876;10.662;2022-12-11T05:01:24;103624.78;;;-139.81
8533;BMP280;4304;53.876;10.662;2022-12-11T05:03:49;103588.41;;;-139.81
8533;BMP280;4304;53.876;10.662;2022-12-11T05:06:15;103580.34;;;-139.81
8533;BMP280;4304;53.876;10.662;2022-12-11T05:08:41;103539.94;;;-139.81
8533;BMP280;4304;53.876;10.662;2022-12-11T05:11:08;103620.72;;;-139.81
8533;BMP280;4304;53.876;10.662;2022-12-11T05:13:34;103675.28;;;-139.81
8533;BMP280;4304;53.876;10.662;2022-12-11T05:16:02;103707.59;;;-139.81
8533;BMP280;4304;53.876;10.662;2022-12-11T05:18:27;103636.91;;;-139.81
8533;BMP280;4304;53.876;10.662;2022-12-11T05:21:00;103705.56;;;-139.81
8533;BMP280;4304;53.876;10.662;2022-12-11T05:23:26;103709.63;;;-139.81
8533;BMP280;4304;53.876;10.662;2022-12-11T05:25:53;103760.13;;;-139.81
8533;BMP280;4304;53.876;10.662;2022-12-11T05:28:18;103792.44;;;-139.81
8533;BMP280;4304;53.876;10.662;2022-12-11T05:30:43;103768.19;;;-139.81
8533;BMP280;4304;53.876;10.662;2022-12-11T05:33:09;103725.78;;;-139.81
8533;BMP280;4304;53.876;10.662;2022-12-11T05:35:34;103673.25;;;-139.81
8533;BMP280;4304;53.876;10.662;2022-12-11T05:37:59;103703.56;;;-139.81
8533;BMP280;4304;53.876;10.662;2022-12-11T05:40:24;103725.78;;;-139.81
8533;BMP280;4304;53.876;10.662;2022-12-11T05:42:50;103673.25;;;-139.81
8533;BMP280;4304;53.876;10.662;2022-12-11T05:45:15;103677.28;;;-139.81
8533;BMP280;4304;53.876;10.662;2022-12-11T05:47:44;103663.16;;;-139.81
8533;BMP280;4304;53.876;10.662;2022-12-11T05:50:10;103610.63;;;-139.81
8533;BMP280;4304;53.876;10.662;2022-12-11T05:52:35;103590.44;;;-139.81
8533;BMP280;4304;53.876;10.662;2022-12-11T05:55:00;103548.00;;;-139.81
8533;BMP280;4304;53.876;10.662;2022-12-11T05:57:25;103586.41;;;-139.81
8533;BMP280;4304;53.876;10.662;2022-12-11T05:59:51;103560.13;;;-139.81
8533;BMP280;4304;53.876;10.662;2022-12-11T06:02:16;103558.13;;;-139.81
8533;BMP280;4304;53.876;10.662;2022-12-11T06:04:41;103535.91;;;-139.81
8533;BMP280;4304;53.876;10.662;2022-12-11T06:07:07;103560.13;;;-139.81
8533;BMP280;4304;53.876;10.662;2022-12-11T06:09:33;103531.84;;;-139.81
8533;BMP280;4304;53.876;10.662;2022-12-11T06:11:58;103511.66;;;-139.81
8533;BMP280;4304;53.876;10.662;2022-12-11T06:14:23;103481.34;;;-139.81
8533;BMP280;4304;53.876;10.662;2022-12-11T06:16:48;103271.28;;;-139.81
8533;BMP280;4304;53.876;10.662;2022-12-11T06:19:34;103546.00;;;-139.81
8533;BMP280;4304;53.876;10.662;2022-12-11T06:21:59;103497.50;;;-139.81
8533;BMP280;4304;53.876;10.662;2022-12-11T06:24:25;103471.25;;;-139.81
8533;BMP280;4304;53.876;10.662;2022-12-11T06:26:56;103519.72;;;-139.81
8533;BMP280;4304;53.876;10.662;2022-12-11T06:29:21;103511.66;;;-139.81
8533;BMP280;4304;53.876;10.662;2022-12-11T06:31:46;103519.72;;;-139.81
8533;BMP280;4304;53.876;10.662;2022-12-11T06:34:12;103511.66;;;-139.81
8533;BMP280;4304;53.876;10.662;2022-12-11T06:36:37;103531.84;;;-139.81
8533;BMP280;4304;53.876;10.662;2022-12-11T06:39:02;103543.97;;;-139.81
8533;BMP280;4304;53.876;10.662;2022-12-11T06:41:28;103572.25;;;-139.81
8533;BMP280;4304;53.876;10.662;2022-12-11T06:43:53;103578.31;;;-139.81
8533;BMP280;4304;53.876;10.662;2022-12-11T06:46:19;103582.34;;;-139.81
8533;BMP280;4304;53.876;10.662;2022-12-11T06:48:45;103594.47;;;-139.81
8533;BMP280;4304;53.876;10.662;2022-12-11T06:51:18;103644.97;;;-139.81
8533;BMP280;4304;53.876;10.662;2022-12-11T06:53:44;103642.94;;;-139.81
8533;BMP280;4304;53.876;10.662;2022-12-11T06:56:14;103572.25;;;-139.81
8533;BMP280;4304;53.876;10.662;2022-12-11T06:58:40;103517.72;;;-139.81
8533;BMP280;4304;53.876;10.662;2022-12-11T07:01:19;103572.25;;;-139.81
8533;BMP280;4304;53.876;10.662;2022-12-11T07:03:44;103505.59;;;-139.81
8533;BMP280;4304;53.876;10.662;2022-12-11T07:06:10;103511.66;;;-139.81
8533;BMP280;4304;53.876;10.662;2022-12-11T07:08:35;103543.97;;;-139.81
8533;BMP280;4304;53.876;10.662;2022-12-11T07:11:05;103564.19;;;-139.81
8533;BMP280;4304;53.876;10.662;2022-12-11T07:13:31;103539.94;;;-139.81
8533;BMP280;4304;53.876;10.662;2022-12-11T07:15:57;103552.06;;;-139.81
8533;BMP280;4304;53.876;10.662;2022-12-11T07:18:22;103550.03;;;-139.81
8533;BMP280;4304;53.876;10.662;2022-12-11T07:20:47;103552.06;;;-139.81
8533;BMP280;4304;53.876;10.662;2022-12-11T07:23:12;103568.22;;;-139.81
8533;BMP280;4304;53.876;10.662;2022-12-11T07:25:38;103636.91;;;-139.81
8533;BMP280;4304;53.876;10.662;2022-12-11T07:28:03;103665.16;;;-139.81
8533;BMP280;4304;53.876;10.662;2022-12-11T07:30:28;103671.22;;;-139.81
8533;BMP280;4304;53.876;10.662;2022-12-11T07:32:54;103673.25;;;-139.81
8533;BMP280;4304;53.876;10.662;2022-12-11T07:35:27;103741.94;;;-139.81
8533;BMP280;4304;53.876;10.662;2022-12-11T07:37:52;103695.47;;;-139.81
8533;BMP280;4304;53.876;10.662;2022-12-11T07:40:24;103705.56;;;-139.81
8533;BMP280;4304;53.876;10.662;2022-12-11T07:43:05;103745.97;;;-139.81
8533;BMP280;4304;53.876;10.662;2022-12-11T07:45:31;103693.44;;;-139.81
8533;BMP280;4304;53.876;10.662;2022-12-11T07:47:56;103711.63;;;-139.81
8533;BMP280;4304;53.876;10.662;2022-12-11T07:50:21;103649.00;;;-139.81
8533;BMP280;4304;53.876;10.662;2022-12-11T07:52:55;103651.03;;;-139.81
8533;BMP280;4304;53.876;10.662;2022-12-11T07:55:20;103626.78;;;-139.81
8533;BMP280;4304;53.876;10.662;2022-12-11T07:58:00;103638.91;;;-139.81
8533;BMP280;4304;53.876;10.662;2022-12-11T08:00:26;103598.50;;;-139.81
8533;BMP280;4304;53.876;10.662;2022-12-11T08:02:51;103624.78;;;-139.81
8533;BMP280;4304;53.876;10.662;2022-12-11T08:05:20;103677.28;;;-139.81
8533;BMP280;4304;53.876;10.662;2022-12-11T08:07:46;103665.16;;;-139.81
8533;BMP280;4304;53.876;10.662;2022-12-11T08:10:11;103644.97;;;-139.81
8533;BMP280;4304;53.876;10.662;2022-12-11T08:12:37;103649.00;;;-139.81
8533;BMP280;4304;53.876;10.662;2022-12-11T08:15:04;103677.28;;;-139.81
8533;BMP280;4304;53.876;10.662;2022-12-11T08:17:36;103727.78;;;-139.81
8533;BMP280;4304;53.876;10.662;2022-12-11T08:20:06;103754.06;;;-139.81
8533;BMP280;4304;53.876;10.662;2022-12-11T08:22:31;103709.63;;;-139.81
8533;BMP280;4304;53.876;10.662;2022-12-11T08:25:22;103814.66;;;-139.81
8533;BMP280;4304;53.876;10.662;2022-12-11T08:27:50;103794.47;;;-139.81
8533;BMP280;4304;53.876;10.662;2022-12-11T08:30:15;103764.16;;;-139.81
8533;BMP280;4304;53.876;10.662;2022-12-11T08:32:40;103754.06;;;-139.81
8533;BMP280;4304;53.876;10.662;2022-12-11T08:35:06;103826.78;;;-139.81
8533;BMP280;4304;53.876;10.662;2022-12-11T08:37:33;103774.25;;;-139.81
8533;BMP280;4304;53.876;10.662;2022-12-11T08:39:58;103788.41;;;-139.81
8533;BMP280;4304;53.876;10.662;2022-12-11T08:42:34;103863.16;;;-139.81
8533;BMP280;4304;53.876;10.662;2022-12-11T08:45:00;103871.22;;;-139.81
8533;BMP280;4304;53.876;10.662;2022-12-11T08:47:25;103923.75;;;-139.81
8533;BMP280;4304;53.876;10.662;2022-12-11T08:49:51;103935.88;;;-139.81
8533;BMP280;4304;53.876;10.662;2022-12-11T08:52:16;103931.81;;;-139.81
8533;BMP280;4304;53.876;10.662;2022-12-11T08:54:41;103903.53;;;-139.81
8533;BMP280;4304;53.876;10.662;2022-12-11T08:57:06;103996.47;;;-139.81
8533;BMP280;4304;53.876;10.662;2022-12-11T08:59:32;103992.44;;;-139.81
8533;BMP280;4304;53.876;10.662;2022-12-11T09:01:57;103998.50;;;-139.81
8533;BMP280;4304;53.876;10.662;2022-12-11T09:04:22;104093.44;;;-139.81
8533;BMP280;4304;53.876;10.662;2022-12-11T09:06:48;104061.13;;;-139.81
8533;BMP280;4304;53.876;10.662;2022-12-11T09:09:13;104101.53;;;-139.81
8533;BMP280;4304;53.876;10.662;2022-12-11T09:11:38;104125.78;;;-139.81
8533;BMP280;4304;53.876;10.662;2022-12-11T09:14:04;104156.06;;;-139.81
8533;BMP280;4304;53.876;10.662;2022-12-11T09:16:40;104315.69;;;-139.81
8533;BMP280;4304;53.876;10.662;2022-12-11T09:19:08;104360.13;;;-139.81
8533;BMP280;4304;53.876;10.662;2022-12-11T09:21:35;104447.03;;;-139.81
8533;BMP280;4304;53.876;10.662;2022-12-11T09:24:00;104582.41;;;-139.81
8533;BMP280;4304;53.876;10.662;2022-12-11T09:26:27;104810.75;;;-139.81
8533;BMP280;4304;53.876;10.662;2022-12-11T09:28:53;105101.75;;;-139.81
8533;BMP280;4304;53.876;10.662;2022-12-11T09:31:26;105411.00;;;-139.81
8533;BMP280;4304;53.876;10.662;2022-12-11T09:33:54;105651.53;;;-139.81
8533;BMP280;4304;53.876;10.662;2022-12-11T09:36:20;105857.72;;;-139.81
8533;BMP280;4304;53.876;10.662;2022-12-11T09:38:45;106065.94;;;-139.81
8533;BMP280;4304;53.876;10.662;2022-12-11T09:43:48;106114.47;;;-139.81
8533;BMP280;4304;53.876;10.662;2022-12-11T09:46:16;106124.56;;;-139.81
8533;BMP280;4304;53.876;10.662;2022-12-11T09:48:51;106037.63;;;-139.81
8533;BMP280;4304;53.876;10.662;2022-12-11T09:51:31;105768.78;;;-139.81
8533;BMP280;4304;53.876;10.662;2022-12-11T09:54:02;105570.66;;;-139.81
8533;BMP280;4304;53.876;10.662;2022-12-11T10:02:10;105291.75;;;-139.81
8533;BMP280;4304;53.876;10.662;2022-12-11T10:07:23;105200.78;;;-139.81
8533;BMP280;4304;53.876;10.662;2022-12-11T10:15:36;105156.31;;;-139.81
8533;BMP280;4304;53.876;10.662;2022-12-11T10:18:10;105176.53;;;-139.81
8533;BMP280;4304;53.876;10.662;2022-12-11T10:20:37;105223.03;;;-139.81
8533;BMP280;4304;53.876;10.662;2022-12-11T10:23:04;105241.22;;;-139.81
8533;BMP280;4304;53.876;10.662;2022-12-11T10:25:40;105253.34;;;-139.81
8533;BMP280;4304;53.876;10.662;2022-12-11T10:28:11;105297.81;;;-139.81
8533;BMP280;4304;53.876;10.662;2022-12-11T10:30:40;105344.28;;;-139.81
8533;BMP280;4304;53.876;10.662;2022-12-11T10:33:20;105402.91;;;-139.81
8533;BMP280;4304;53.876;10.662;2022-12-11T10:35:58;105445.34;;;-139.81
8533;BMP280;4304;53.876;10.662;2022-12-11T10:41:01;105423.13;;;-139.81
8533;BMP280;4304;53.876;10.662;2022-12-11T10:43:48;105499.94;;;-139.81
8533;BMP280;4304;53.876;10.662;2022-12-11T10:46:15;105390.78;;;-139.81
8533;BMP280;4304;53.876;10.662;2022-12-11T10:48:51;105427.16;;;-139.81
8533;BMP280;4304;53.876;10.662;2022-12-11T10:51:21;105528.22;;;-139.81
8533;BMP280;4304;53.876;10.662;2022-12-11T10:53:57;105526.19;;;-139.81
8533;BMP280;4304;53.876;10.662;2022-12-11T10:56:27;105574.72;;;-139.81
8533;BMP280;4304;53.876;10.662;2022-12-11T10:58:53;105483.75;;;-139.81
8533;BMP280;4304;53.876;10.662;2022-12-11T11:01:23;105576.75;;;-139.81
8533;BMP280;4304;53.876;10.662;2022-12-11T11:03:58;105635.34;;;-139.81
8533;BMP280;4304;53.876;10.662;2022-12-11T11:06:44;105677.81;;;-139.81
8533;BMP280;4304;53.876;10.662;2022-12-11T11:09:35;105673.75;;;-139.81
8533;BMP280;4304;53.876;10.662;2022-12-11T11:12:02;105594.94;;;-139.81
8533;BMP280;4304;53.876;10.662;2022-12-11T11:14:27;105631.31;;;-139.81
8533;BMP280;4304;53.876;10.662;2022-12-11T11:16:56;105661.63;;;-139.81
8533;BMP280;4304;53.876;10.662;2022-12-11T11:19:35;105621.22;;;-139.81
8533;BMP280;4304;53.876;10.662;2022-12-11T11:22:17;105584.81;;;-139.81
8533;BMP280;4304;53.876;10.662;2022-12-11T11:24:53;105669.72;;;-139.81
8533;BMP280;4304;53.876;10.662;2022-12-11T11:27:33;105625.25;;;-139.81
8533;BMP280;4304;53.876;10.662;2022-12-11T11:30:06;105592.91;;;-139.81
8533;BMP280;4304;53.876;10.662;2022-12-11T11:32:42;105637.38;;;-139.81
8533;BMP280;4304;53.876;10.662;2022-12-11T11:37:38;105641.41;;;-139.81
8533;BMP280;4304;53.876;10.662;2022-12-11T11:40:18;105649.50;;;-139.81
8533;BMP280;4304;53.876;10.662;2022-12-11T11:45:32;105516.09;;;-139.81
8533;BMP280;4304;53.876;10.662;2022-12-11T11:53:55;105556.53;;;-139.81
8533;BMP280;4304;53.876;10.662;2022-12-11T11:56:26;105590.88;;;-139.81
8533;BMP280;4304;53.876;10.662;2022-12-11T11:58:58;105673.75;;;-139.81
8533;BMP280;4304;53.876;10.662;2022-12-11T12:01:25;105580.78;;;-139.81
8533;BMP280;4304;53.876;10.662;2022-12-11T12:03:51;105552.47;;;-139.81
8533;BMP280;4304;53.876;10.662;2022-12-11T12:14:38;105823.34;;;-139.81
8533;BMP280;4304;53.876;10.662;2022-12-11T12:22:11;105904.22;;;-139.81
8533;BMP280;4304;53.876;10.662;2022-12-11T12:25:09;105855.69;;;-139.81
8533;BMP280;4304;53.876;10.662;2022-12-11T12:28:04;105859.75;;;-139.81
8533;BMP280;4304;53.876;10.662;2022-12-11T12:30:50;105742.50;;;-139.81
8533;BMP280;4304;53.876;10.662;2022-12-11T12:33:25;105730.38;;;-139.81
8533;BMP280;4304;53.876;10.662;2022-12-11T12:45:42;105677.81;;;-139.81
8533;BMP280;4304;53.876;10.662;2022-12-11T12:48:09;105621.22;;;-139.81
8533;BMP280;4304;53.876;10.662;2022-12-11T12:50:39;105722.28;;;-139.81
8533;BMP280;4304;53.876;10.662;2022-12-11T12:53:06;105691.94;;;-139.81
8533;BMP280;4304;53.876;10.662;2022-12-11T12:55:33;105696.00;;;-139.81
8533;BMP280;4304;53.876;10.662;2022-12-11T12:58:04;105580.78;;;-139.81
8533;BMP280;4304;53.876;10.662;2022-12-11T13:00:34;105633.34;;;-139.81
8533;BMP280;4304;53.876;10.662;2022-12-11T13:03:09;105760.69;;;-139.81
8533;BMP280;4304;53.876;10.662;2022-12-11T13:05:40;105698.03;;;-139.81
8533;BMP280;4304;53.876;10.662;2022-12-11T13:08:06;105778.88;;;-139.81
8533;BMP280;4304;53.876;10.662;2022-12-11T13:10:34;105884.00;;;-139.81
8533;BMP280;4304;53.876;10.662;2022-12-11T13:13:04;105936.56;;;-139.81
8533;BMP280;4304;53.876;10.662;2022-12-11T13:15:37;105944.63;;;-139.81
8533;BMP280;4304;53.876;10.662;2022-12-11T13:18:06;105954.75;;;-139.81
8533;BMP280;4304;53.876;10.662;2022-12-11T13:20:50;105932.50;;;-139.81
8533;BMP280;4304;53.876;10.662;2022-12-11T13:23:18;105962.84;;;-139.81
8533;BMP280;4304;53.876;10.662;2022-12-11T13:25:58;105997.22;;;-139.81
8533;BMP280;4304;53.876;10.662;2022-12-11T13:31:27;106082.13;;;-139.81
8533;BMP280;4304;53.876;10.662;2022-12-11T13:34:01;106055.84;;;-139.81
8533;BMP280;4304;53.876;10.662;2022-12-11T13:36:32;106017.41;;;-139.81
8533;BMP280;4304;53.876;10.662;2022-12-11T13:39:31;106049.78;;;-139.81
8533;BMP280;4304;53.876;10.662;2022-12-11T13:42:00;105952.72;;;-139.81
8533;BMP280;4304;53.876;10.662;2022-12-11T13:44:28;105981.03;;;-139.81
8533;BMP280;4304;53.876;10.662;2022-12-11T13:46:56;105906.22;;;-139.81
8533;BMP280;4304;53.876;10.662;2022-12-11T13:49:25;105839.53;;;-139.81
8533;BMP280;4304;53.876;10.662;2022-12-11T13:51:55;105890.06;;;-139.81
8533;BMP280;4304;53.876;10.662;2022-12-11T13:54:21;105851.66;;;-139.81
8533;BMP280;4304;53.876;10.662;2022-12-11T13:59:28;105845.59;;;-139.81
8533;BMP280;4304;53.876;10.662;2022-12-11T14:04:59;105817.28;;;-139.81
8533;BMP280;4304;53.876;10.662;2022-12-11T14:07:29;105772.81;;;-139.81
8533;BMP280;4304;53.876;10.662;2022-12-11T14:10:04;105835.47;;;-139.81
8533;BMP280;4304;53.876;10.662;2022-12-11T14:12:30;105873.88;;;-139.81
8533;BMP280;4304;53.876;10.662;2022-12-11T14:14:58;105748.56;;;-139.81
8533;BMP280;4304;53.876;10.662;2022-12-11T14:17:26;105726.31;;;-139.81
8533;BMP280;4304;53.876;10.662;2022-12-11T14:19:53;105702.06;;;-139.81
8533;BMP280;4304;53.876;10.662;2022-12-11T14:22:21;105691.94;;;-139.81
8533;BMP280;4304;53.876;10.662;2022-12-11T14:24:59;105760.69;;;-139.81
8533;BMP280;4304;53.876;10.662;2022-12-11T14:27:26;105588.88;;;-139.81
8533;BMP280;4304;53.876;10.662;2022-12-11T14:29:52;105603.00;;;-139.81
8533;BMP280;4304;53.876;10.662;2022-12-11T14:32:31;105661.63;;;-139.81
8533;BMP280;4304;53.876;10.662;2022-12-11T14:34:59;105669.72;;;-139.81
8533;BMP280;4304;53.876;10.662;2022-12-11T14:37:26;105702.06;;;-139.81
8533;BMP280;4304;53.876;10.662;2022-12-11T14:40:05;105700.03;;;-139.81
8533;BMP280;4304;53.876;10.662;2022-12-11T14:42:46;105750.56;;;-139.81
8533;BMP280;4304;53.876;10.662;2022-12-11T14:48:00;105675.78;;;-139.81
8533;BMP280;4304;53.876;10.662;2022-12-11T14:53:04;105542.38;;;-139.81
8533;BMP280;4304;53.876;10.662;2022-12-11T14:55:33;105594.94;;;-139.81
8533;BMP280;4304;53.876;10.662;2022-12-11T14:58:21;105657.59;;;-139.81
8533;BMP280;4304;53.876;10.662;2022-12-11T15:01:18;105649.50;;;-139.81
8533;BMP280;4304;53.876;10.662;2022-12-11T15:03:45;105617.16;;;-139.81
8533;BMP280;4304;53.876;10.662;2022-12-11T15:06:43;105712.16;;;-139.81
8533;BMP280;4304;53.876;10.662;2022-12-11T15:09:19;105730.38;;;-139.81
8533;BMP280;4304;53.876;10.662;2022-12-11T15:11:47;105726.31;;;-139.81
8533;BMP280;4304;53.876;10.662;2022-12-11T15:14:15;105730.38;;;-139.81
8533;BMP280;4304;53.876;10.662;2022-12-11T15:16:41;105663.66;;;-139.81
8533;BMP280;4304;53.876;10.662;2022-12-11T15:19:19;105637.38;;;-139.81
8533;BMP280;4304;53.876;10.662;2022-12-11T15:21:45;105530.25;;;-139.81
8533;BMP280;4304;53.876;10.662;2022-12-11T15:24:29;105528.22;;;-139.81